Peterson, Utah
Current Conditions -  °F | °C
As of 9:58 PM on Wednesday 22 Oct 2014 (Local Time) from KHIF Reporting Station
Clear Clear  
Wind Chill: 45°   Ceiling: Unl
Heat Index: 49°   Visibility: 10mi
Dew Point: 25°   Wind: 9mph
Humidity: 40%   Direction: 110°ESE
Pressure: 30.18"   Gusts: NA
Location:  41.0884°N, 111.576°W
Report Text: KHIF 230358Z AUTO 11008KT 10SM CLR 09/M04 A3018 RMK AO2 SLP204 T00931037
Loading
Personal Weather Stations






























Interactive Weather Map
Tropical Storm Tracking
New forecast layout! Learn more

10-Day Weather Forecast

Advertisements
Track Severe Weather on mobile